• Join FlightAware (Why Join?)
  • Login
  • US Flag 
12:36AM EST


 

Airport Tracker/Info


-or-


 

Live Flight TrackerFlight Track Log ✈ SWA378 ✈ 28-Jun-2013 ✈ KSJC - KONT

Flight Track Log - Related Links

Times and Time Zones

All times are in EDT time to prevent confusion due to time zone crossing. See the SWA378 flight status page for this flight to view local times or setup timezone preferences in your user account.

Time Position Orientation Groundspeed Altitude Reporting Facility
EDT Latitude Longitude Course Direction KTS MPH feet Rate Location/Type
11:12AM 37.3833 -121.9500 138° Southeast 174 200 1,400  Level Northern Cal TRACON
11:13AM 37.4333 -121.9833 332° Northwest 213 245 2,700 1,620 Climbing Northern Cal TRACON
11:14AM 37.4500 -121.9167 73° East 240 276 4,400 1,680 Climbing Northern Cal TRACON
11:15AM 37.4000 -121.8667 142° Southeast 258 297 5,900 2,340 Climbing Northern Cal TRACON
11:16AM 37.3333 -121.8000 142° Southeast 300 345 9,100 3,000 Climbing Northern Cal TRACON
11:18AM 37.0325 -121.4706 138° Southeast  Level Estimated
11:18AM 37.2389 -121.6900 137° Southeast 309 356 13,400  Level Oakland Center
11:19AM 37.1700 -121.6133 138° Southeast 325 374 16,000 2,400 Climbing Oakland Center
11:20AM 37.0978 -121.5344 139° Southeast 338 389 18,300 2,280 Climbing Oakland Center
11:21AM 37.0311 -121.4597 138° Southeast 350 403 20,700 1,920 Climbing Oakland Center
11:22AM 36.9553 -121.3764 139° Southeast 360 414 22,300 1,860 Climbing Oakland Center
11:23AM 36.8589 -121.2722 139° Southeast 378 435 24,600 1,800 Climbing Oakland Center
11:24AM 36.7769 -121.1833 139° Southeast 387 445 26,100 1,320 Climbing Oakland Center
11:25AM 36.6889 -121.0914 140° Southeast 399 459 27,400 1,620 Climbing Oakland Center
11:26AM 36.5994 -120.9939 139° Southeast 418 481 29,400 1,800 Climbing Oakland Center
11:27AM 36.5131 -120.8989 139° Southeast 417 480 31,200 1,560 Climbing Oakland Center
11:28AM 36.4247 -120.8044 139° Southeast 418 481 32,600 1,200 Climbing Oakland Center
11:29AM 36.3350 -120.7069 139° Southeast 424 488 33,700 1,020 Climbing Oakland Center
11:30AM 36.2433 -120.6097 139° Southeast 430 495 34,800 1,260 Climbing Oakland Center
11:31AM 36.1531 -120.5047 137° Southeast 438 504 36,300 1,020 Climbing Oakland Center
11:32AM 36.0656 -120.3528 125° Southeast 453 521 37,000 300 Climbing Oakland Center
11:33AM 35.9906 -120.2283 127° Southeast 451 519 37,000 -60 Level Oakland Center
11:34AM 35.9142 -120.1025 127° Southeast 455 524 36,900  Descending Oakland Center
11:35AM 35.8381 -119.9800 127° Southeast 451 519 37,000  Climbing Oakland Center
11:36AM 35.7631 -119.8567 127° Southeast 448 516 37,000  Level Oakland Center
11:37AM 35.6853 -119.7328 128° Southeast 453 521 37,000 -60 Level Oakland Center
11:38AM 35.6089 -119.6081 127° Southeast 455 524 36,900  Descending Oakland Center
11:39AM 35.5314 -119.4853 128° Southeast 454 522 37,000  Climbing Oakland Center
11:40AM 35.4553 -119.3614 127° Southeast 454 522 37,000 -60 Level Oakland Center
11:41AM 35.3761 -119.2372 128° Southeast 460 529 36,900  Descending Oakland Center
11:42AM 35.2853 -119.0897 127° Southeast 454 522 37,000  Climbing Oakland Center
11:43AM 35.2100 -118.9706 128° Southeast 446 513 36,900 -60 Descending Oakland Center
11:44AM 35.1342 -118.8511 128° Southeast 445 512 36,900 -240 Level Oakland Center
11:45AM 35.0606 -118.7322 127° Southeast 441 507 36,500 -1,860 Descending Oakland Center
11:46AM 34.9850 -118.6114 127° Southeast 445 512 33,100 -3,120 Descending Oakland Center
11:48AM 34.8828 -118.4542 128° Southeast 449 517 29,100 -2,760 Descending Los Angeles Center
11:49AM 34.8097 -118.3419 128° Southeast 431 496 26,500 -2,520 Descending Los Angeles Center
11:50AM 34.7275 -118.2131 128° Southeast 407 468 23,900 -1,500 Descending Los Angeles Center
11:52AM 34.6042 -118.0081 126° Southeast 379 436 22,000 -1,080 Descending Los Angeles Center
11:53AM 34.5533 -117.8944 118° Southeast 385 443 20,600 -1,740 Descending Los Angeles Center
11:54AM 34.5028 -117.7847 119° Southeast 379 436 18,400 -2,340 Descending Los Angeles Center
11:55AM 34.4461 -117.6608 119° Southeast 356 410 15,800 -2,040 Descending Los Angeles Center
11:56AM 34.3997 -117.5622 120° Southeast 340 391 14,200 -1,800 Descending Los Angeles Center
11:57AM 34.3594 -117.4678 117° Southeast 300 345 12,200 -1,680 Descending Los Angeles Center
11:58AM 34.3200 -117.3900 122° Southeast 306 352 10,800 -1,680 Descending Los Angeles Center
11:59AM 34.2328 -117.3761 173° South 270 311 8,800 -2,280 Descending Los Angeles Center
12:00PM 34.1719 -117.4206 211° Southwest 254 292 6,100 -2,280 Descending Los Angeles Center
12:01PM 34.1089 -117.4639 210° Southwest 258 297 4,100 -1,620 Descending Los Angeles Center
12:02PM 34.0500 -117.4833 195° South 182 209 2,700 -1,140 Descending Southern California TRACON
12:03PM 34.0500 -117.5333 270° West 141 162 1,700 -1,020 Descending Southern California TRACON
12:06PM 34.0500 -117.6000 270° West  Level FlightAware Approximate
12:13PM 34.0560 -117.6012 270° West  Level Estimated